createdAt,value
2023-01-28T00:00:02.728Z,15.70
2023-01-28T00:02:31.885Z,17.10
2023-01-28T00:05:01.733Z,14.03
2023-01-28T00:07:30.301Z,15.63
2023-01-28T00:09:58.707Z,12.67
2023-01-28T00:12:27.226Z,12.17
2023-01-28T00:14:55.635Z,12.63
2023-01-28T00:17:24.036Z,11.80
2023-01-28T00:19:52.448Z,14.53
2023-01-28T00:22:22.219Z,15.63
2023-01-28T00:24:50.619Z,15.80
2023-01-28T00:27:19.017Z,16.37
2023-01-28T00:29:47.972Z,15.77
2023-01-28T00:32:16.611Z,13.17
2023-01-28T00:34:45.020Z,16.77
2023-01-28T00:37:13.472Z,15.83
2023-01-28T00:39:43.252Z,12.23
2023-01-28T00:42:11.713Z,17.60
2023-01-28T00:44:40.093Z,17.20
2023-01-28T00:47:08.592Z,14.83
2023-01-28T00:49:37.119Z,17.43
2023-01-28T00:52:05.899Z,17.57
2023-01-28T00:54:34.288Z,17.40
2023-01-28T00:57:04.097Z,22.17
2023-01-28T00:59:32.492Z,13.50
2023-01-28T01:02:12.365Z,16.10
2023-01-28T01:04:41.471Z,14.27
2023-01-28T01:07:09.865Z,14.70
2023-01-28T01:09:38.228Z,13.90
2023-01-28T01:12:09.045Z,14.70
2023-01-28T01:14:37.451Z,18.33
2023-01-28T01:17:05.915Z,18.93
2023-01-28T01:19:34.334Z,18.13
2023-01-28T01:22:02.720Z,21.03
2023-01-28T01:24:34.111Z,19.40
2023-01-28T01:27:02.611Z,15.43
2023-01-28T01:29:33.905Z,16.20
2023-01-28T01:32:02.355Z,20.27
2023-01-28T01:34:30.823Z,20.43
2023-01-28T01:36:59.222Z,18.63
2023-01-28T01:39:27.722Z,16.50
2023-01-28T01:41:56.084Z,22.97
2023-01-28T01:45:07.129Z,17.47
2023-01-28T01:47:44.804Z,14.97
2023-01-28T01:50:22.931Z,18.03
2023-01-28T01:52:57.363Z,20.63
2023-01-28T01:55:30.519Z,13.97
2023-01-28T01:58:03.500Z,20.03
2023-01-28T02:00:33.772Z,12.73
2023-01-28T02:03:02.899Z,20.50
2023-01-28T02:05:31.402Z,16.33
2023-01-28T02:08:21.080Z,17.43
2023-01-28T02:10:55.871Z,17.13
2023-01-28T02:13:28.793Z,14.00
2023-01-28T02:16:02.242Z,16.80
2023-01-28T02:18:30.766Z,16.80
2023-01-28T02:21:43.067Z,14.67
2023-01-28T02:24:39.403Z,23.23
2023-01-28T02:27:22.976Z,15.30
2023-01-28T02:30:01.079Z,17.33
2023-01-28T02:32:37.766Z,15.10
2023-01-28T02:35:14.291Z,17.87
2023-01-28T02:37:52.156Z,20.53
2023-01-28T02:40:27.775Z,17.17
2023-01-28T02:42:56.167Z,16.07
2023-01-28T02:45:50.606Z,17.53
2023-01-28T02:48:22.165Z,22.30
2023-01-28T02:50:57.102Z,16.33
2023-01-28T02:53:45.032Z,17.67
2023-01-28T02:56:29.442Z,19.63
2023-01-28T02:59:24.863Z,17.60
2023-01-28T03:02:01.665Z,13.13
2023-01-28T03:04:36.178Z,20.33
2023-01-28T03:07:11.028Z,17.90
2023-01-28T03:09:43.579Z,19.67
2023-01-28T03:12:35.438Z,21.00
2023-01-28T03:15:27.480Z,15.07
2023-01-28T03:18:21.172Z,21.20
2023-01-28T03:21:14.101Z,18.77
2023-01-28T03:24:13.211Z,21.33
2023-01-28T03:27:10.357Z,21.90
2023-01-28T03:30:00.470Z,22.50
2023-01-28T03:32:47.238Z,23.20
2023-01-28T03:35:36.752Z,18.20
2023-01-28T03:38:18.142Z,18.40
2023-01-28T03:40:52.684Z,23.93
2023-01-28T03:43:21.096Z,17.47
2023-01-28T03:45:51.677Z,15.83
2023-01-28T03:48:20.641Z,22.60
2023-01-28T03:50:51.106Z,21.60
2023-01-28T03:53:20.527Z,16.97
2023-01-28T03:55:51.134Z,19.13
2023-01-28T03:58:20.607Z,24.37
2023-01-28T04:00:49.668Z,15.23
2023-01-28T04:03:21.403Z,23.30
2023-01-28T04:06:01.234Z,20.27
2023-01-28T04:08:29.788Z,17.27
2023-01-28T04:10:58.716Z,14.73
2023-01-28T04:13:27.149Z,19.60
2023-01-28T04:15:55.597Z,19.60
2023-01-28T04:18:27.455Z,17.67
2023-01-28T04:20:57.292Z,17.50
2023-01-28T04:23:25.764Z,15.00
2023-01-28T04:25:54.364Z,15.50
2023-01-28T04:28:22.774Z,17.80
2023-01-28T04:30:51.294Z,20.47
2023-01-28T04:33:19.985Z,18.07
2023-01-28T04:35:48.428Z,18.77
2023-01-28T04:38:18.261Z,22.13
2023-01-28T04:40:50.135Z,19.43
2023-01-28T04:43:18.573Z,15.20
2023-01-28T04:45:47.270Z,20.87
2023-01-28T04:48:17.006Z,21.60
2023-01-28T04:50:46.428Z,18.67
2023-01-28T04:53:15.033Z,20.37
2023-01-28T04:55:46.470Z,18.93
2023-01-28T04:58:14.954Z,15.83
2023-01-28T05:00:43.551Z,19.33
2023-01-28T05:03:12.036Z,18.07
2023-01-28T05:05:40.435Z,23.33
2023-01-28T05:08:10.041Z,20.00
2023-01-28T05:10:40.397Z,18.57
2023-01-28T05:13:10.628Z,22.03
2023-01-28T05:15:39.125Z,16.60
2023-01-28T05:18:07.807Z,17.90
2023-01-28T05:20:36.258Z,20.87
2023-01-28T05:23:04.702Z,22.80
2023-01-28T05:25:33.118Z,16.30
2023-01-28T05:28:01.570Z,18.83
2023-01-28T05:30:31.403Z,16.27
2023-01-28T05:32:59.829Z,18.17
2023-01-28T05:35:28.226Z,17.20
2023-01-28T05:37:56.665Z,19.63
2023-01-28T05:40:25.059Z,15.70
2023-01-28T05:42:53.519Z,18.83
2023-01-28T05:45:22.188Z,19.67
2023-01-28T05:47:52.052Z,21.27
2023-01-28T05:50:20.652Z,18.20
2023-01-28T05:52:49.059Z,20.63
2023-01-28T05:55:20.518Z,15.90
2023-01-28T05:57:49.937Z,19.40
2023-01-28T06:00:19.869Z,20.00
2023-01-28T06:02:48.286Z,19.17
2023-01-28T06:05:18.407Z,18.27
2023-01-28T06:07:47.043Z,15.43
2023-01-28T06:10:18.014Z,16.30
2023-01-28T06:12:46.874Z,18.47
2023-01-28T06:15:15.329Z,14.77
2023-01-28T06:17:43.758Z,15.37
2023-01-28T06:20:13.761Z,18.07
2023-01-28T06:22:43.708Z,18.33
2023-01-28T06:25:12.142Z,18.80
2023-01-28T06:27:41.722Z,19.83
2023-01-28T06:30:11.900Z,17.37
2023-01-28T06:32:40.373Z,16.83
2023-01-28T06:35:09.863Z,18.97
2023-01-28T06:37:39.680Z,14.43
2023-01-28T06:40:11.939Z,17.67
2023-01-28T06:42:40.337Z,18.20
2023-01-28T06:45:10.001Z,15.77
2023-01-28T06:47:40.518Z,14.90
2023-01-28T06:50:10.991Z,19.80
2023-01-28T06:52:39.387Z,19.87
2023-01-28T06:55:10.176Z,18.20
2023-01-28T06:57:40.310Z,14.83
2023-01-28T07:00:13.800Z,21.53
2023-01-28T07:02:42.502Z,17.63
2023-01-28T07:05:12.323Z,18.40
2023-01-28T07:07:41.978Z,24.17
2023-01-28T07:10:13.240Z,16.30
2023-01-28T07:12:41.892Z,21.87
2023-01-28T07:15:12.156Z,18.17
2023-01-28T07:17:41.791Z,20.30
2023-01-28T07:20:13.550Z,22.50
2023-01-28T07:22:44.207Z,20.50
2023-01-28T07:25:15.604Z,21.93
2023-01-28T07:27:50.441Z,28.47
2023-01-28T07:30:20.687Z,23.33
2023-01-28T07:32:54.283Z,19.47
2023-01-28T07:35:23.153Z,21.40
2023-01-28T07:37:55.267Z,22.63
2023-01-28T07:40:26.581Z,23.03
2023-01-28T07:42:56.750Z,21.83
2023-01-28T07:45:26.639Z,17.83
2023-01-28T07:47:57.220Z,22.20
2023-01-28T07:50:26.715Z,20.60
2023-01-28T07:52:55.151Z,18.23
2023-01-28T07:55:25.465Z,20.17
2023-01-28T07:57:56.188Z,17.13
2023-01-28T08:00:27.224Z,21.10
2023-01-28T08:02:58.436Z,18.53
2023-01-28T08:05:30.979Z,21.03
2023-01-28T08:08:00.011Z,17.50
2023-01-28T08:10:29.841Z,20.63
2023-01-28T08:13:00.023Z,22.53
2023-01-28T08:15:29.548Z,19.00
2023-01-28T08:17:59.538Z,22.13
2023-01-28T08:20:29.927Z,20.17
2023-01-28T08:23:08.696Z,17.40
2023-01-28T08:25:38.514Z,20.37
2023-01-28T08:28:08.072Z,18.20
2023-01-28T08:30:38.185Z,16.43
2023-01-28T08:33:07.275Z,20.83
2023-01-28T08:35:35.943Z,19.70
2023-01-28T08:38:06.276Z,18.67
2023-01-28T08:40:35.426Z,17.77
2023-01-28T08:43:05.842Z,26.97
2023-01-28T08:45:34.277Z,18.63
2023-01-28T08:48:05.449Z,20.13
2023-01-28T08:50:36.684Z,19.53
2023-01-28T08:53:07.995Z,14.37
2023-01-28T08:55:36.769Z,20.80
2023-01-28T08:58:09.124Z,21.33
2023-01-28T09:00:37.851Z,23.07
2023-01-28T09:03:07.296Z,19.60
2023-01-28T09:05:36.302Z,19.57
2023-01-28T09:08:05.724Z,18.63
2023-01-28T09:10:34.323Z,29.83
2023-01-28T09:13:08.998Z,18.30
2023-01-28T09:15:37.976Z,20.67
2023-01-28T09:18:06.734Z,18.17
2023-01-28T09:20:35.910Z,23.10
2023-01-28T09:23:04.603Z,18.30
2023-01-28T09:25:33.057Z,17.00
2023-01-28T09:28:01.469Z,18.30
2023-01-28T09:30:31.704Z,19.10
2023-01-28T09:33:00.124Z,20.83
2023-01-28T09:35:28.548Z,22.53
2023-01-28T09:38:00.229Z,19.87
2023-01-28T09:40:37.922Z,18.27
2023-01-28T09:43:34.639Z,17.87
2023-01-28T09:46:08.180Z,20.23
2023-01-28T09:48:42.583Z,26.53
2023-01-28T09:51:23.352Z,18.30
2023-01-28T09:53:54.450Z,28.27
2023-01-28T09:56:30.973Z,21.03
2023-01-28T09:59:02.449Z,22.67
2023-01-28T10:01:44.802Z,19.73
2023-01-28T10:04:31.942Z,15.70
2023-01-28T10:07:18.460Z,23.00
2023-01-28T10:09:56.885Z,14.10
2023-01-28T10:13:00.605Z,13.50
2023-01-28T10:16:00.850Z,17.13
2023-01-28T10:18:38.341Z,17.87
2023-01-28T10:21:16.641Z,15.77
2023-01-28T10:24:00.093Z,19.80
2023-01-28T10:26:35.923Z,17.60
2023-01-28T10:29:14.156Z,15.83
2023-01-28T10:31:53.360Z,12.67
2023-01-28T10:34:24.367Z,16.23
2023-01-28T10:36:53.312Z,14.70
2023-01-28T10:39:26.538Z,16.57
2023-01-28T10:41:58.981Z,18.10
2023-01-28T10:44:37.139Z,17.47
2023-01-28T10:47:13.930Z,14.97
2023-01-28T10:49:47.875Z,12.97
2023-01-28T10:52:18.566Z,15.67
2023-01-28T10:54:46.990Z,18.47
2023-01-28T10:57:20.270Z,18.80
2023-01-28T10:59:50.682Z,19.73
2023-01-28T11:02:32.446Z,18.73
2023-01-28T11:05:09.194Z,22.60
2023-01-28T11:07:37.685Z,17.93
2023-01-28T11:10:32.306Z,17.03
2023-01-28T11:13:02.796Z,19.87
2023-01-28T11:15:31.653Z,16.70
2023-01-28T11:18:04.119Z,15.57
2023-01-28T11:20:42.297Z,16.80
2023-01-28T11:23:23.269Z,20.23
2023-01-28T11:26:04.279Z,13.77
2023-01-28T11:28:33.739Z,16.90
2023-01-28T11:31:05.619Z,18.07
2023-01-28T11:33:39.019Z,23.70
2023-01-28T11:36:15.985Z,17.83
2023-01-28T11:38:53.844Z,23.90
2023-01-28T11:41:30.172Z,17.97
2023-01-28T11:44:01.519Z,18.90
2023-01-28T11:46:53.116Z,18.47
2023-01-28T11:49:33.225Z,13.67
2023-01-28T11:52:11.831Z,16.53
2023-01-28T11:54:55.214Z,19.63
2023-01-28T11:57:27.360Z,20.20
2023-01-28T12:00:24.194Z,19.37
2023-01-28T12:03:01.686Z,25.37
2023-01-28T12:05:58.445Z,18.63
2023-01-28T12:08:35.557Z,18.30
2023-01-28T12:11:45.988Z,18.97
2023-01-28T12:14:27.443Z,19.70
2023-01-28T12:17:09.779Z,22.83
2023-01-28T12:19:56.368Z,19.87
2023-01-28T12:22:59.230Z,22.87
2023-01-28T12:25:49.207Z,34.40
2023-01-28T12:28:31.599Z,27.63
2023-01-28T12:31:19.622Z,41.33
2023-01-28T12:34:18.558Z,27.07
2023-01-28T12:37:00.299Z,26.80
2023-01-28T12:39:48.135Z,22.10
2023-01-28T12:42:27.519Z,27.97
2023-01-28T12:45:03.548Z,30.53
2023-01-28T12:47:38.744Z,21.77
2023-01-28T12:50:15.727Z,19.03
2023-01-28T12:52:50.989Z,18.00
2023-01-28T12:55:27.215Z,18.60
2023-01-28T12:57:59.835Z,18.13
2023-01-28T13:00:33.768Z,19.87
2023-01-28T13:03:13.255Z,18.73
2023-01-28T13:05:45.868Z,19.60
2023-01-28T13:08:23.584Z,20.17
2023-01-28T13:10:52.832Z,18.63
2023-01-28T13:13:31.657Z,15.93
2023-01-28T13:16:00.698Z,19.80
2023-01-28T13:18:36.270Z,24.77
2023-01-28T13:21:06.841Z,23.37
2023-01-28T13:23:41.856Z,21.47
2023-01-28T13:26:28.324Z,17.57
2023-01-28T13:29:20.115Z,21.20
2023-01-28T13:31:52.407Z,19.40
2023-01-28T13:34:44.759Z,21.20
2023-01-28T13:37:27.491Z,19.17
2023-01-28T13:40:03.080Z,26.10
2023-01-28T13:42:32.927Z,19.57
2023-01-28T13:45:24.313Z,17.63
2023-01-28T13:47:59.588Z,17.33
2023-01-28T13:50:40.475Z,18.43
2023-01-28T13:53:24.982Z,20.03
2023-01-28T13:55:57.143Z,16.73
2023-01-28T13:58:55.011Z,19.83
2023-01-28T14:02:12.754Z,19.27
2023-01-28T14:05:18.979Z,19.07
2023-01-28T14:08:18.488Z,17.43
2023-01-28T14:11:05.295Z,19.97
2023-01-28T14:14:36.036Z,16.77
2023-01-28T14:17:17.248Z,19.20
2023-01-28T14:19:46.807Z,15.50
2023-01-28T14:22:20.732Z,17.40
2023-01-28T14:24:50.605Z,15.87
2023-01-28T14:27:26.213Z,14.27
2023-01-28T14:30:11.994Z,15.73
2023-01-28T14:32:48.296Z,19.57
2023-01-28T14:35:26.109Z,14.03
2023-01-28T14:37:55.561Z,14.00
2023-01-28T14:40:25.545Z,13.17
2023-01-28T14:42:56.474Z,14.90
2023-01-28T14:45:41.376Z,20.37
2023-01-28T14:48:26.533Z,15.90
2023-01-28T14:51:38.200Z,13.83
2023-01-28T14:54:36.620Z,16.13
2023-01-28T14:57:38.576Z,15.60
2023-01-28T15:00:22.509Z,18.73
2023-01-28T15:02:51.107Z,15.63
2023-01-28T15:05:25.019Z,19.43
2023-01-28T15:07:54.063Z,17.50
2023-01-28T15:10:29.289Z,15.17
2023-01-28T15:13:06.706Z,17.20
2023-01-28T15:15:38.228Z,20.97
2023-01-28T15:18:16.872Z,18.27
2023-01-28T15:20:48.938Z,15.40
2023-01-28T15:23:25.502Z,17.13
2023-01-28T15:25:55.468Z,17.63
2023-01-28T15:28:30.875Z,21.20
2023-01-28T15:31:00.620Z,19.17
2023-01-28T15:33:29.342Z,20.43
2023-01-28T15:36:00.684Z,20.17
2023-01-28T15:38:30.244Z,16.03
2023-01-28T15:41:01.656Z,16.70
2023-01-28T15:43:32.930Z,20.33
2023-01-28T15:46:02.330Z,19.10
2023-01-28T15:48:33.542Z,19.17
2023-01-28T15:51:07.316Z,14.90
2023-01-28T15:53:43.629Z,16.80
2023-01-28T15:56:16.099Z,17.83
2023-01-28T15:58:46.643Z,16.37
2023-01-28T16:01:18.279Z,20.27
2023-01-28T16:04:01.108Z,20.13
2023-01-28T16:06:37.073Z,19.73
2023-01-28T16:09:08.667Z,17.97
2023-01-28T16:11:44.870Z,17.30
2023-01-28T16:14:26.987Z,12.50
2023-01-28T16:16:57.818Z,13.60
2023-01-28T16:19:39.175Z,14.60
2023-01-28T16:22:20.863Z,13.83
2023-01-28T16:24:54.827Z,11.87
2023-01-28T16:27:26.626Z,12.57
2023-01-28T16:29:55.978Z,15.77
2023-01-28T16:32:31.744Z,13.40
2023-01-28T16:35:01.078Z,15.93
2023-01-28T16:37:32.119Z,10.73
2023-01-28T16:40:02.196Z,13.90
2023-01-28T16:42:34.071Z,19.20
2023-01-28T16:45:02.850Z,15.20
2023-01-28T16:47:31.913Z,16.10
2023-01-28T16:50:00.544Z,15.13
2023-01-28T16:52:32.149Z,12.07
2023-01-28T16:55:01.015Z,13.30
2023-01-28T16:57:29.479Z,15.87
2023-01-28T16:59:57.901Z,14.07
2023-01-28T17:02:26.844Z,17.47
2023-01-28T17:04:56.143Z,19.40
2023-01-28T17:07:24.880Z,15.30
2023-01-28T17:09:54.903Z,13.73
2023-01-28T17:12:23.360Z,10.57
2023-01-28T17:14:51.760Z,12.03
2023-01-28T17:17:21.113Z,15.27
2023-01-28T17:19:49.585Z,14.50
2023-01-28T17:22:18.993Z,12.27
2023-01-28T17:24:47.851Z,16.10
2023-01-28T17:27:19.008Z,11.37
2023-01-28T17:29:48.222Z,10.27
2023-01-28T17:32:16.745Z,10.40
2023-01-28T17:34:45.654Z,13.13
2023-01-28T17:37:14.416Z,15.23
2023-01-28T17:39:43.637Z,12.03
2023-01-28T17:42:12.497Z,12.03
2023-01-28T17:44:43.218Z,15.40
2023-01-28T17:47:12.593Z,10.27
2023-01-28T17:49:41.677Z,13.73
2023-01-28T17:52:11.578Z,8.43
2023-01-28T17:54:40.820Z,9.83
2023-01-28T17:57:10.161Z,12.43
2023-01-28T17:59:39.524Z,11.70
2023-01-28T18:02:14.165Z,11.87
2023-01-28T18:04:43.974Z,14.63
2023-01-28T18:07:12.866Z,10.73
2023-01-28T18:09:43.587Z,11.33
2023-01-28T18:12:15.213Z,11.00
2023-01-28T18:14:45.283Z,10.77
2023-01-28T18:17:16.058Z,9.67
2023-01-28T18:19:45.993Z,8.87
2023-01-28T18:22:15.097Z,9.07
2023-01-28T18:24:43.548Z,9.47
2023-01-28T18:27:15.363Z,7.73
2023-01-28T18:29:44.571Z,8.23
2023-01-28T18:32:15.500Z,7.50
2023-01-28T18:34:44.707Z,10.13
2023-01-28T18:37:14.429Z,9.50
2023-01-28T18:39:44.901Z,8.10
2023-01-28T18:42:14.463Z,9.13
2023-01-28T18:44:43.290Z,7.07
2023-01-28T18:47:12.061Z,11.23
2023-01-28T18:49:48.896Z,8.90
2023-01-28T18:52:17.650Z,9.03
2023-01-28T18:54:47.918Z,14.80
2023-01-28T18:57:17.270Z,13.53
2023-01-28T18:59:46.175Z,11.13
2023-01-28T19:02:17.651Z,10.20
2023-01-28T19:04:48.838Z,10.67
2023-01-28T19:07:18.842Z,13.50
2023-01-28T19:09:47.828Z,31.47
2023-01-28T19:12:17.629Z,11.13
2023-01-28T19:14:47.929Z,7.23
2023-01-28T19:17:17.992Z,10.23
2023-01-28T19:19:51.393Z,7.00
2023-01-28T19:22:20.753Z,6.63
2023-01-28T19:24:50.467Z,5.57
2023-01-28T19:27:20.175Z,6.43
2023-01-28T19:29:49.897Z,6.37
2023-01-28T19:32:20.290Z,9.27
2023-01-28T19:34:52.120Z,10.43
2023-01-28T19:37:22.408Z,8.90
2023-01-28T19:39:52.024Z,8.33
2023-01-28T19:42:22.328Z,6.33
2023-01-28T19:44:51.788Z,6.53
2023-01-28T19:47:23.166Z,6.87
2023-01-28T19:49:53.591Z,15.80
2023-01-28T19:52:23.093Z,4.70
2023-01-28T19:54:53.141Z,8.37
2023-01-28T19:57:23.328Z,7.47
2023-01-28T19:59:52.692Z,5.27
2023-01-28T20:02:24.365Z,7.10
2023-01-28T20:05:00.905Z,8.53
2023-01-28T20:07:30.836Z,6.40
2023-01-28T20:10:02.988Z,11.00
2023-01-28T20:12:32.282Z,6.00
2023-01-28T20:15:02.325Z,8.20
2023-01-28T20:17:32.288Z,7.93
2023-01-28T20:20:05.677Z,8.03
2023-01-28T20:22:38.924Z,5.27
2023-01-28T20:25:11.036Z,7.53
2023-01-28T20:27:40.778Z,6.40
2023-01-28T20:30:13.478Z,7.90
2023-01-28T20:32:43.568Z,6.30
2023-01-28T20:35:16.346Z,10.60
2023-01-28T20:37:46.293Z,5.13
2023-01-28T20:40:19.036Z,7.10
2023-01-28T20:42:48.560Z,8.50
2023-01-28T20:45:18.230Z,8.37
2023-01-28T20:47:47.713Z,7.17
2023-01-28T20:50:19.397Z,8.27
2023-01-28T20:52:49.096Z,9.23
2023-01-28T20:55:19.593Z,7.10
2023-01-28T20:57:49.158Z,10.90
2023-01-28T21:00:19.929Z,7.47
2023-01-28T21:02:50.192Z,6.93
2023-01-28T21:05:21.189Z,6.57
2023-01-28T21:07:50.780Z,5.90
2023-01-28T21:10:20.779Z,4.70
2023-01-28T21:12:50.145Z,6.20
2023-01-28T21:15:19.313Z,7.10
2023-01-28T21:17:48.827Z,5.90
2023-01-28T21:20:18.986Z,7.03
2023-01-28T21:22:54.331Z,5.43
2023-01-28T21:25:24.280Z,6.47
2023-01-28T21:27:53.011Z,6.83
2023-01-28T21:30:22.802Z,6.50
2023-01-28T21:32:52.629Z,5.90
2023-01-28T21:35:23.190Z,5.60
2023-01-28T21:37:52.237Z,5.90
2023-01-28T21:40:21.291Z,4.23
2023-01-28T21:42:50.536Z,7.23
2023-01-28T21:45:19.285Z,5.87
2023-01-28T21:47:48.005Z,8.97
2023-01-28T21:50:17.869Z,7.57
2023-01-28T21:52:49.895Z,5.97
2023-01-28T21:55:19.248Z,6.30
2023-01-28T21:57:48.122Z,7.80
2023-01-28T22:00:18.140Z,5.80
2023-01-28T22:02:46.845Z,6.27
2023-01-28T22:05:15.640Z,5.20
2023-01-28T22:07:44.195Z,5.43
2023-01-28T22:10:14.856Z,4.17
2023-01-28T22:12:43.406Z,4.53
2023-01-28T22:15:12.755Z,6.30
2023-01-28T22:17:41.109Z,5.67
2023-01-28T22:20:12.701Z,5.37
2023-01-28T22:22:41.051Z,6.07
2023-01-28T22:25:10.710Z,7.27
2023-01-28T22:27:40.434Z,4.90
2023-01-28T22:30:10.950Z,7.60
2023-01-28T22:32:39.303Z,8.00
2023-01-28T22:35:08.360Z,6.77
2023-01-28T22:37:37.595Z,8.53
2023-01-28T22:40:07.470Z,6.17
2023-01-28T22:42:35.865Z,6.10
2023-01-28T22:45:07.494Z,4.73
2023-01-28T22:47:35.854Z,4.53
2023-01-28T22:50:04.453Z,6.97
2023-01-28T22:52:32.854Z,7.70
2023-01-28T22:55:01.298Z,6.87
2023-01-28T22:57:29.728Z,8.17
2023-01-28T23:00:00.424Z,6.80
2023-01-28T23:02:30.596Z,6.80
2023-01-28T23:04:59.026Z,5.40
2023-01-28T23:07:27.443Z,6.87
2023-01-28T23:09:55.890Z,6.30
2023-01-28T23:12:24.433Z,5.50
2023-01-28T23:15:10.404Z,6.70
2023-01-28T23:17:57.423Z,6.23
2023-01-28T23:20:43.260Z,4.73
2023-01-28T23:23:33.907Z,7.87
2023-01-28T23:26:02.572Z,5.27
2023-01-28T23:28:31.007Z,4.20
2023-01-28T23:35:19.127Z,5.50
2023-01-28T23:37:48.247Z,5.07
2023-01-28T23:40:17.445Z,4.80
2023-01-28T23:42:50.597Z,4.87
2023-01-28T23:45:19.571Z,6.17
2023-01-28T23:47:48.249Z,4.23
2023-01-28T23:50:19.028Z,4.53
2023-01-28T23:52:47.558Z,5.37
2023-01-28T23:55:16.517Z,4.90
2023-01-28T23:57:44.966Z,4.13
